Time,TemperatureF,DewpointF,PressureIn,WindDirection,WindDirectionDegrees,WindSpeedMPH,WindSpeedGustMPH,Humidity,HourlyPrecipIn,Conditions,Clouds,dailyrainin,SoftwareType,DateUTC
2013-03-28 00:00:00,51.8,40.8,29.90,WNW,292,0.0,0.0,66,0.00,,---,0.00,VWS V13.01,2013-03-28 04:00:00,
2013-03-28 00:01:00,51.8,40.8,29.90,WNW,292,0.0,0.0,66,0.00,,---,0.00,VWS V13.01,2013-03-28 04:01:00,
2013-03-28 00:06:00,51.6,40.6,29.90,WNW,292,0.0,0.0,66,0.00,,---,0.00,VWS V13.01,2013-03-28 04:06:00,
2013-03-28 00:11:00,51.6,41.0,29.90,WNW,292,0.0,0.0,67,0.00,,---,0.00,VWS V13.01,2013-03-28 04:11:00,
2013-03-28 00:16:00,51.6,41.0,29.90,WNW,292,0.0,0.0,67,0.00,,---,0.00,VWS V13.01,2013-03-28 04:16:00,
2013-03-28 00:17:00,51.6,41.0,29.90,WNW,292,0.0,0.0,67,0.00,,---,0.00,VWS V13.01,2013-03-28 04:17:00,
2013-03-28 00:22:00,51.4,40.8,29.90,WNW,292,0.0,0.0,67,0.00,,---,0.00,VWS V13.01,2013-03-28 04:22:00,
2013-03-28 00:23:00,51.4,40.8,29.90,WNW,292,0.0,0.0,67,0.00,,---,0.00,VWS V13.01,2013-03-28 04:23:00,
2013-03-28 00:28:00,51.4,40.8,29.90,WNW,292,0.0,0.0,67,0.00,,---,0.00,VWS V13.01,2013-03-28 04:28:00,
2013-03-28 00:33:00,51.4,41.2,29.90,WNW,292,0.0,0.0,68,0.00,,---,0.00,VWS V13.01,2013-03-28 04:33:00,
2013-03-28 00:38:00,51.4,41.2,29.90,WNW,292,0.0,0.0,68,0.00,,---,0.00,VWS V13.01,2013-03-28 04:38:00,
2013-03-28 00:43:00,51.4,41.2,29.90,WNW,292,0.0,0.0,68,0.00,,---,0.00,VWS V13.01,2013-03-28 04:43:00,
2013-03-28 00:48:00,51.0,40.8,29.90,WNW,292,0.0,0.0,68,0.00,,---,0.00,VWS V13.01,2013-03-28 04:48:00,
2013-03-28 00:53:00,51.0,40.8,29.89,WNW,292,0.0,0.0,68,0.00,,---,0.00,VWS V13.01,2013-03-28 04:53:00,
2013-03-28 00:58:00,50.7,40.5,29.89,WNW,292,0.0,0.0,68,0.00,,---,0.00,VWS V13.01,2013-03-28 04:58:00,
2013-03-28 01:03:00,50.7,40.5,29.89,WNW,292,0.0,0.0,68,0.00,,---,0.00,VWS V13.01,2013-03-28 05:03:00,
2013-03-28 01:08:00,50.7,40.5,29.90,WNW,292,0.0,0.0,68,0.00,,---,0.00,VWS V13.01,2013-03-28 05:08:00,
2013-03-28 01:13:00,50.3,40.2,29.89,WNW,292,0.0,0.0,68,0.00,,---,0.00,VWS V13.01,2013-03-28 05:13:00,
2013-03-28 01:18:00,50.3,40.5,29.89,WNW,292,0.0,0.0,69,0.00,,---,0.00,VWS V13.01,2013-03-28 05:18:00,
2013-03-28 01:23:00,50.1,40.3,29.89,WNW,292,0.0,0.0,69,0.00,,---,0.00,VWS V13.01,2013-03-28 05:23:00,
2013-03-28 01:28:00,50.0,40.2,29.89,WNW,292,0.0,0.0,69,0.00,,---,0.00,VWS V13.01,2013-03-28 05:28:00,
2013-03-28 01:33:00,49.8,40.0,29.89,WNW,292,0.0,0.0,69,0.00,,---,0.00,VWS V13.01,2013-03-28 05:33:00,
2013-03-28 01:38:00,49.8,40.0,29.89,WNW,292,0.0,0.0,69,0.00,,---,0.00,VWS V13.01,2013-03-28 05:38:00,
2013-03-28 01:43:00,49.8,40.0,29.89,WNW,292,0.0,0.0,69,0.00,,---,0.00,VWS V13.01,2013-03-28 05:43:00,
2013-03-28 01:48:00,49.8,40.4,29.89,WNW,292,0.0,0.0,70,0.00,,---,0.00,VWS V13.01,2013-03-28 05:48:00,
2013-03-28 01:53:00,49.8,40.4,29.89,WNW,292,0.0,0.0,70,0.00,,---,0.00,VWS V13.01,2013-03-28 05:53:00,
2013-03-28 01:58:00,49.8,40.4,29.89,WNW,292,0.0,0.0,70,0.00,,---,0.00,VWS V13.01,2013-03-28 05:58:00,
2013-03-28 02:03:00,49.8,40.4,29.89,WNW,292,0.0,0.0,70,0.00,,---,0.00,VWS V13.01,2013-03-28 06:03:00,
2013-03-28 02:08:00,49.6,40.2,29.89,WNW,292,0.0,0.0,70,0.00,,---,0.00,VWS V13.01,2013-03-28 06:08:00,
2013-03-28 02:14:00,49.6,40.2,29.89,WNW,292,0.0,0.0,70,0.00,,---,0.00,VWS V13.01,2013-03-28 06:14:00,
2013-03-28 02:20:00,49.6,40.2,29.89,WNW,292,0.0,0.0,70,0.00,,---,0.00,VWS V13.01,2013-03-28 06:20:00,
2013-03-28 02:26:00,49.6,40.6,29.89,WNW,292,0.0,0.0,71,0.00,,---,0.00,VWS V13.01,2013-03-28 06:26:00,
2013-03-28 02:32:00,49.6,40.6,29.89,WNW,292,0.0,0.0,71,0.00,,---,0.00,VWS V13.01,2013-03-28 06:32:00,
2013-03-28 02:37:00,49.6,40.6,29.89,WNW,292,0.0,0.0,71,0.00,,---,0.00,VWS V13.01,2013-03-28 06:37:00,
2013-03-28 02:42:00,49.6,40.6,29.89,WNW,292,0.0,0.0,71,0.00,,---,0.00,VWS V13.01,2013-03-28 06:42:00,
2013-03-28 02:47:00,49.6,40.6,29.89,WNW,292,0.0,0.0,71,0.00,,---,0.00,VWS V13.01,2013-03-28 06:47:00,
2013-03-28 02:52:00,49.6,40.6,29.88,WNW,292,0.0,0.0,71,0.00,,---,0.00,VWS V13.01,2013-03-28 06:52:00,
2013-03-28 02:57:00,49.6,40.6,29.89,WNW,292,0.0,0.0,71,0.00,,---,0.00,VWS V13.01,2013-03-28 06:57:00,
2013-03-28 03:02:00,49.6,40.6,29.89,WNW,292,0.0,0.0,71,0.00,,---,0.00,VWS V13.01,2013-03-28 07:02:00,
2013-03-28 03:07:00,49.4,40.8,29.88,WNW,292,0.0,0.0,72,0.00,,---,0.00,VWS V13.01,2013-03-28 07:07:00,
2013-03-28 03:12:00,49.2,40.6,29.88,WNW,292,0.0,0.0,72,0.00,,---,0.00,VWS V13.01,2013-03-28 07:12:00,
2013-03-28 03:17:00,49.2,40.6,29.88,WNW,292,0.0,0.0,72,0.00,,---,0.00,VWS V13.01,2013-03-28 07:17:00,
2013-03-28 03:23:00,49.1,40.5,29.88,WNW,292,0.0,0.0,72,0.00,,---,0.00,VWS V13.01,2013-03-28 07:23:00,
2013-03-28 03:28:00,49.1,40.5,29.88,WNW,292,0.0,0.0,72,0.00,,---,0.00,VWS V13.01,2013-03-28 07:28:00,
2013-03-28 03:33:00,48.9,40.3,29.88,WNW,292,0.0,0.0,72,0.00,,---,0.00,VWS V13.01,2013-03-28 07:33:00,
2013-03-28 03:38:00,48.9,40.6,29.88,WNW,292,0.0,0.0,73,0.00,,---,0.00,VWS V13.01,2013-03-28 07:38:00,
2013-03-28 03:43:00,48.7,40.5,29.88,WNW,292,0.0,0.0,73,0.00,,---,0.00,VWS V13.01,2013-03-28 07:43:00,
2013-03-28 03:48:00,48.7,40.5,29.87,WNW,292,0.0,0.0,73,0.00,,---,0.00,VWS V13.01,2013-03-28 07:48:00,
2013-03-28 03:53:00,48.5,40.2,29.87,WNW,292,0.0,0.0,73,0.00,,---,0.00,VWS V13.01,2013-03-28 07:53:00,
2013-03-28 03:58:00,48.3,40.1,29.88,WNW,292,0.0,0.0,73,0.00,,---,0.00,VWS V13.01,2013-03-28 07:58:00,
2013-03-28 04:03:00,48.3,40.1,29.87,WNW,292,0.0,0.0,73,0.00,,---,0.00,VWS V13.01,2013-03-28 08:03:00,
2013-03-28 04:08:00,48.2,40.0,29.87,WNW,292,0.0,0.0,73,0.00,,---,0.00,VWS V13.01,2013-03-28 08:08:00,
2013-03-28 04:13:00,48.2,40.3,29.88,WNW,292,0.0,0.0,74,0.00,,---,0.00,VWS V13.01,2013-03-28 08:13:00,
2013-03-28 04:18:00,48.2,40.3,29.88,WNW,292,0.0,0.0,74,0.00,,---,0.00,VWS V13.01,2013-03-28 08:18:00,
2013-03-28 04:23:00,48.2,40.3,29.88,WNW,292,0.0,0.0,74,0.00,,---,0.00,VWS V13.01,2013-03-28 08:23:00,
2013-03-28 04:28:00,48.0,40.1,29.88,WNW,292,0.0,0.0,74,0.00,,---,0.00,VWS V13.01,2013-03-28 08:28:00,
2013-03-28 04:33:00,48.0,40.1,29.88,WNW,292,0.0,0.0,74,0.00,,---,0.00,VWS V13.01,2013-03-28 08:33:00,
2013-03-28 04:38:00,48.0,40.1,29.88,WNW,292,0.0,0.0,74,0.00,,---,0.00,VWS V13.01,2013-03-28 08:38:00,
2013-03-28 04:43:00,48.0,40.1,29.87,WNW,292,0.0,0.0,74,0.00,,---,0.00,VWS V13.01,2013-03-28 08:43:00,
2013-03-28 04:48:00,48.0,40.1,29.87,WNW,292,0.0,0.0,74,0.00,,---,0.00,VWS V13.01,2013-03-28 08:48:00,
2013-03-28 04:53:00,48.0,40.1,29.88,WNW,292,0.0,0.0,74,0.00,,---,0.00,VWS V13.01,2013-03-28 08:53:00,
2013-03-28 04:58:00,48.0,40.1,29.88,WNW,292,0.0,0.0,74,0.00,,---,0.00,VWS V13.01,2013-03-28 08:58:00,
2013-03-28 05:03:00,48.0,40.1,29.88,WNW,292,0.0,0.0,74,0.00,,---,0.00,VWS V13.01,2013-03-28 09:03:00,
2013-03-28 05:08:00,48.0,40.1,29.88,WNW,292,0.0,0.0,74,0.00,,---,0.00,VWS V13.01,2013-03-28 09:08:00,
2013-03-28 05:14:00,47.8,39.9,29.88,WNW,292,0.0,0.0,74,0.00,,---,0.00,VWS V13.01,2013-03-28 09:14:00,
2013-03-28 05:19:00,47.8,40.3,29.88,WNW,292,0.0,0.0,75,0.00,,---,0.00,VWS V13.01,2013-03-28 09:19:00,
2013-03-28 05:24:00,47.4,39.9,29.88,WNW,292,0.0,0.0,75,0.00,,---,0.00,VWS V13.01,2013-03-28 09:24:00,
2013-03-28 05:29:00,47.4,39.9,29.88,WNW,292,0.0,0.0,75,0.00,,---,0.00,VWS V13.01,2013-03-28 09:29:00,
2013-03-28 05:34:00,47.3,39.5,29.88,WNW,292,0.0,0.0,74,0.00,,---,0.00,VWS V13.01,2013-03-28 09:34:00,
2013-03-28 05:39:00,47.3,39.5,29.88,WNW,292,0.0,0.0,74,0.00,,---,0.00,VWS V13.01,2013-03-28 09:39:00,
2013-03-28 05:45:00,47.3,39.5,29.88,WNW,292,0.0,0.0,74,0.00,,---,0.00,VWS V13.01,2013-03-28 09:45:00,
2013-03-28 05:50:00,47.3,39.5,29.88,WNW,292,0.0,0.0,74,0.00,,---,0.00,VWS V13.01,2013-03-28 09:50:00,
2013-03-28 05:55:00,47.3,39.5,29.89,WNW,292,0.0,0.0,74,0.00,,---,0.00,VWS V13.01,2013-03-28 09:55:00,
2013-03-28 06:00:00,47.1,39.6,29.89,WNW,292,0.0,0.0,75,0.00,,---,0.00,VWS V13.01,2013-03-28 10:00:00,
2013-03-28 06:05:00,47.1,39.6,29.89,WNW,292,0.0,0.0,75,0.00,,---,0.00,VWS V13.01,2013-03-28 10:05:00,
2013-03-28 06:10:00,47.1,39.6,29.89,WNW,292,0.0,0.0,75,0.00,,---,0.00,VWS V13.01,2013-03-28 10:10:00,
2013-03-28 06:16:00,47.1,39.6,29.89,WNW,292,0.0,0.0,75,0.00,,---,0.00,VWS V13.01,2013-03-28 10:16:00,
2013-03-28 06:21:00,47.1,39.6,29.89,WNW,292,0.0,0.0,75,0.00,,---,0.00,VWS V13.01,2013-03-28 10:21:00,
2013-03-28 06:27:00,47.1,39.6,29.89,WNW,292,0.0,0.0,75,0.00,,---,0.00,VWS V13.01,2013-03-28 10:27:00,
2013-03-28 06:32:00,46.9,39.4,29.89,WNW,292,0.0,0.0,75,0.00,,---,0.00,VWS V13.01,2013-03-28 10:32:00,
2013-03-28 06:37:00,46.9,39.4,29.89,WNW,292,0.0,0.0,75,0.00,,---,0.00,VWS V13.01,2013-03-28 10:37:00,
2013-03-28 06:42:00,46.9,39.4,29.89,WNW,292,0.0,0.0,75,0.00,,---,0.00,VWS V13.01,2013-03-28 10:42:00,
2013-03-28 06:47:00,46.9,39.4,29.89,WNW,292,0.0,0.0,75,0.00,,---,0.00,VWS V13.01,2013-03-28 10:47:00,
2013-03-28 06:53:00,46.7,39.2,29.89,WNW,292,0.0,0.0,75,0.00,,---,0.00,VWS V13.01,2013-03-28 10:53:00,
2013-03-28 06:58:00,46.7,39.2,29.89,WNW,292,0.0,0.0,75,0.00,,---,0.00,VWS V13.01,2013-03-28 10:58:00,
2013-03-28 07:03:00,46.7,39.2,29.89,WNW,292,0.0,0.0,75,0.00,,---,0.00,VWS V13.01,2013-03-28 11:03:00,
2013-03-28 07:08:00,46.5,39.0,29.89,WNW,292,0.0,0.0,75,0.00,,---,0.00,VWS V13.01,2013-03-28 11:08:00,
2013-03-28 07:13:00,46.7,39.2,29.89,WNW,292,0.0,0.0,75,0.00,,---,0.00,VWS V13.01,2013-03-28 11:13:00,
2013-03-28 07:18:00,46.5,39.0,29.90,WNW,292,0.0,0.0,75,0.00,,---,0.00,VWS V13.01,2013-03-28 11:18:00,
2013-03-28 07:23:00,46.5,39.0,29.90,WNW,292,0.0,0.0,75,0.00,,---,0.00,VWS V13.01,2013-03-28 11:23:00,
2013-03-28 07:28:00,46.5,39.4,29.90,WNW,292,0.0,0.0,76,0.00,,---,0.00,VWS V13.01,2013-03-28 11:28:00,
2013-03-28 07:33:00,46.7,39.5,29.90,WNW,292,0.0,0.0,76,0.00,,---,0.00,VWS V13.01,2013-03-28 11:33:00,
2013-03-28 07:38:00,46.5,39.4,29.90,WNW,292,0.0,0.0,76,0.00,,---,0.00,VWS V13.01,2013-03-28 11:38:00,
2013-03-28 07:43:00,46.5,39.4,29.90,WNW,292,0.0,0.0,76,0.00,,---,0.00,VWS V13.01,2013-03-28 11:43:00,
2013-03-28 07:48:00,46.5,39.4,29.90,WNW,292,0.0,0.0,76,0.00,,---,0.00,VWS V13.01,2013-03-28 11:48:00,
2013-03-28 07:53:00,46.7,39.5,29.90,WNW,292,0.0,0.0,76,0.00,,---,0.00,VWS V13.01,2013-03-28 11:53:00,
2013-03-28 07:58:00,46.9,39.7,29.90,WNW,292,0.0,0.0,76,0.00,,---,0.00,VWS V13.01,2013-03-28 11:58:00,
2013-03-28 08:03:00,46.9,39.7,29.90,WNW,292,0.0,0.0,76,0.00,,---,0.00,VWS V13.01,2013-03-28 12:03:00,
2013-03-28 08:08:00,47.1,39.9,29.90,WNW,292,0.0,0.0,76,0.00,,---,0.00,VWS V13.01,2013-03-28 12:08:00,
2013-03-28 08:13:00,47.3,40.5,29.90,WNW,292,0.0,0.0,77,0.00,,---,0.00,VWS V13.01,2013-03-28 12:13:00,
2013-03-28 08:18:00,47.4,40.6,29.90,WNW,292,0.0,0.0,77,0.00,,---,0.00,VWS V13.01,2013-03-28 12:18:00,
2013-03-28 08:23:00,47.6,40.8,29.91,WNW,292,0.0,0.0,77,0.00,,---,0.00,VWS V13.01,2013-03-28 12:23:00,
2013-03-28 08:28:00,48.0,41.2,29.91,WNW,292,0.0,0.0,77,0.00,,---,0.00,VWS V13.01,2013-03-28 12:28:00,
2013-03-28 08:33:00,48.5,41.6,29.91,WNW,292,0.0,0.0,77,0.00,,---,0.00,VWS V13.01,2013-03-28 12:33:00,
2013-03-28 08:39:00,48.9,41.7,29.91,WNW,292,0.0,0.0,76,0.00,,---,0.00,VWS V13.01,2013-03-28 12:39:00,
2013-03-28 08:44:00,49.1,41.9,29.91,WNW,292,0.0,0.0,76,0.00,,---,0.00,VWS V13.01,2013-03-28 12:44:00,
2013-03-28 08:49:00,49.6,42.4,29.91,WNW,292,0.0,0.0,76,0.00,,---,0.00,VWS V13.01,2013-03-28 12:49:00,
2013-03-28 08:54:00,50.0,42.4,29.91,WNW,292,0.0,0.0,75,0.00,,---,0.00,VWS V13.01,2013-03-28 12:54:00,
2013-03-28 08:59:00,50.1,42.5,29.91,WNW,292,0.0,0.0,75,0.00,,---,0.00,VWS V13.01,2013-03-28 12:59:00,
2013-03-28 09:04:00,50.7,42.7,29.92,WNW,292,0.0,0.0,74,0.00,,---,0.00,VWS V13.01,2013-03-28 13:04:00,
2013-03-28 09:09:00,51.0,42.7,29.92,WNW,292,0.0,0.0,73,0.00,,---,0.00,VWS V13.01,2013-03-28 13:09:00,
2013-03-28 09:14:00,51.6,42.9,29.92,WNW,292,0.0,0.0,72,0.00,,---,0.00,VWS V13.01,2013-03-28 13:14:00,
2013-03-28 09:19:00,52.1,43.4,29.92,WNW,292,0.0,0.0,72,0.00,,---,0.00,VWS V13.01,2013-03-28 13:19:00,
2013-03-28 09:24:00,52.5,43.4,29.92,WNW,292,0.0,0.0,71,0.00,,---,0.00,VWS V13.01,2013-03-28 13:24:00,
2013-03-28 09:29:00,52.8,43.7,29.93,WNW,292,0.0,0.0,71,0.00,,---,0.00,VWS V13.01,2013-03-28 13:29:00,
2013-03-28 09:34:00,53.2,43.7,29.93,WNW,292,0.0,0.0,70,0.00,,---,0.00,VWS V13.01,2013-03-28 13:34:00,
2013-03-28 09:39:00,53.6,43.7,29.93,WNW,292,0.0,0.0,69,0.00,,---,0.00,VWS V13.01,2013-03-28 13:39:00,
2013-03-28 09:44:00,53.7,43.4,29.93,WNW,292,0.0,0.0,68,0.00,,---,0.00,VWS V13.01,2013-03-28 13:44:00,
2013-03-28 09:49:00,54.6,44.3,29.94,WNW,292,0.0,0.0,68,0.00,,---,0.00,VWS V13.01,2013-03-28 13:49:00,
2013-03-28 09:54:00,55.2,44.5,29.94,WNW,292,0.0,0.0,67,0.00,,---,0.00,VWS V13.01,2013-03-28 13:54:00,
2013-03-28 09:59:00,55.5,44.3,29.94,WNW,292,0.0,0.0,66,0.00,,---,0.00,VWS V13.01,2013-03-28 13:59:00,
2013-03-28 10:05:00,56.1,44.5,29.94,WNW,292,0.0,0.0,65,0.00,,---,0.00,VWS V13.01,2013-03-28 14:05:00,
2013-03-28 10:10:00,56.3,44.3,29.94,WNW,292,0.0,0.0,64,0.00,,---,0.00,VWS V13.01,2013-03-28 14:10:00,
2013-03-28 10:15:00,57.0,44.5,29.94,WNW,292,0.0,0.0,63,0.00,,---,0.00,VWS V13.01,2013-03-28 14:15:00,
2013-03-28 10:20:00,57.3,44.8,29.94,WNW,292,0.0,0.0,63,0.00,,---,0.00,VWS V13.01,2013-03-28 14:20:00,
2013-03-28 10:25:00,57.3,44.8,29.94,WNW,292,0.0,0.0,63,0.00,,---,0.00,VWS V13.01,2013-03-28 14:25:00,
2013-03-28 10:30:00,57.7,45.2,29.94,WNW,292,0.0,0.0,63,0.00,,---,0.00,VWS V13.01,2013-03-28 14:30:00,
2013-03-28 10:35:00,58.6,45.2,29.94,WNW,292,0.0,0.0,61,0.00,,---,0.00,VWS V13.01,2013-03-28 14:35:00,
2013-03-28 10:40:00,58.6,45.2,29.94,WNW,292,0.0,0.0,61,0.00,,---,0.00,VWS V13.01,2013-03-28 14:40:00,
2013-03-28 10:45:00,58.6,45.2,29.94,WNW,292,0.0,0.0,61,0.00,,---,0.00,VWS V13.01,2013-03-28 14:45:00,
2013-03-28 10:50:00,58.6,45.2,29.94,WNW,292,0.0,0.0,61,0.00,,---,0.00,VWS V13.01,2013-03-28 14:50:00,
2013-03-28 10:55:00,58.6,45.2,29.94,WNW,292,0.0,0.0,61,0.00,,---,0.00,VWS V13.01,2013-03-28 14:55:00,
2013-03-28 11:00:00,60.4,46.0,29.94,WNW,292,0.0,0.0,59,0.00,,---,0.00,VWS V13.01,2013-03-28 15:00:00,
2013-03-28 11:05:00,60.6,46.2,29.94,WNW,292,0.0,0.0,59,0.00,,---,0.00,VWS V13.01,2013-03-28 15:05:00,
2013-03-28 11:10:00,61.1,46.2,29.94,WNW,292,0.0,0.0,58,0.00,,---,0.00,VWS V13.01,2013-03-28 15:10:00,
2013-03-28 11:15:00,61.5,46.6,29.94,WNW,292,0.0,0.0,58,0.00,,---,0.00,VWS V13.01,2013-03-28 15:15:00,
2013-03-28 11:20:00,61.8,46.0,29.94,WNW,292,0.0,0.0,56,0.00,,---,0.00,VWS V13.01,2013-03-28 15:20:00,
2013-03-28 11:25:00,61.8,46.0,29.94,WNW,292,0.0,0.0,56,0.00,,---,0.00,VWS V13.01,2013-03-28 15:25:00,
2013-03-28 11:30:00,62.6,46.2,29.94,WNW,292,0.0,0.0,55,0.00,,---,0.00,VWS V13.01,2013-03-28 15:30:00,
2013-03-28 11:35:00,62.7,46.3,29.94,WNW,292,0.0,0.0,55,0.00,,---,0.00,VWS V13.01,2013-03-28 15:35:00,
2013-03-28 11:40:00,63.1,46.2,29.94,WNW,292,0.0,0.0,54,0.00,,---,0.00,VWS V13.01,2013-03-28 15:40:00,
2013-03-28 11:45:00,63.5,46.6,29.94,WNW,292,0.0,0.0,54,0.00,,---,0.00,VWS V13.01,2013-03-28 15:45:00,
2013-03-28 11:50:00,63.5,45.1,29.94,WNW,292,0.0,0.0,51,0.00,,---,0.00,VWS V13.01,2013-03-28 15:50:00,
2013-03-28 11:55:00,64.2,45.7,29.94,WNW,292,0.0,0.0,51,0.00,,---,0.00,VWS V13.01,2013-03-28 15:55:00,
2013-03-28 12:00:00,64.5,46.0,29.94,WNW,292,0.0,0.0,51,0.00,,---,0.00,VWS V13.01,2013-03-28 16:00:00,
2013-03-28 12:05:00,64.5,45.5,29.94,WNW,292,0.0,0.0,50,0.00,,---,0.00,VWS V13.01,2013-03-28 16:05:00,
2013-03-28 12:10:00,64.7,45.7,29.94,WNW,292,0.0,0.0,50,0.00,,---,0.00,VWS V13.01,2013-03-28 16:10:00,
2013-03-28 12:15:00,64.7,45.7,29.94,WNW,292,0.0,0.0,50,0.00,,---,0.00,VWS V13.01,2013-03-28 16:15:00,
2013-03-28 12:20:00,65.3,45.7,29.93,WNW,292,0.0,0.0,49,0.00,,---,0.00,VWS V13.01,2013-03-28 16:20:00,
2013-03-28 12:25:00,65.4,45.8,29.93,WNW,292,0.0,0.0,49,0.00,,---,0.00,VWS V13.01,2013-03-28 16:25:00,
2013-03-28 12:30:00,66.2,47.0,29.93,WNW,292,0.0,0.0,50,0.00,,---,0.00,VWS V13.01,2013-03-28 16:30:00,
2013-03-28 12:35:00,66.3,47.1,29.93,WNW,292,0.0,0.0,50,0.00,,---,0.00,VWS V13.01,2013-03-28 16:35:00,
2013-03-28 12:40:00,66.9,47.7,29.92,WNW,292,0.0,0.0,50,0.00,,---,0.00,VWS V13.01,2013-03-28 16:40:00,
2013-03-28 12:45:00,67.2,47.4,29.92,WNW,292,0.0,0.0,49,0.00,,---,0.00,VWS V13.01,2013-03-28 16:45:00,
2013-03-28 12:50:00,67.6,47.2,29.92,WNW,292,0.0,0.0,48,0.00,,---,0.00,VWS V13.01,2013-03-28 16:50:00,
2013-03-28 12:55:00,67.8,47.4,29.92,WNW,292,0.0,0.0,48,0.00,,---,0.00,VWS V13.01,2013-03-28 16:55:00,
2013-03-28 13:00:00,68.1,46.6,29.92,WNW,292,0.0,0.0,46,0.00,,---,0.00,VWS V13.01,2013-03-28 17:00:00,
2013-03-28 13:05:00,68.5,46.9,29.92,WNW,292,0.0,0.0,46,0.00,,---,0.00,VWS V13.01,2013-03-28 17:05:00,
2013-03-28 13:10:00,68.7,47.1,29.92,WNW,292,0.0,0.0,46,0.00,,---,0.00,VWS V13.01,2013-03-28 17:10:00,
2013-03-28 13:15:00,68.7,47.1,29.91,WNW,292,0.0,0.0,46,0.00,,---,0.00,VWS V13.01,2013-03-28 17:15:00,
2013-03-28 13:20:00,68.7,47.1,29.91,WNW,292,0.0,0.0,46,0.00,,---,0.00,VWS V13.01,2013-03-28 17:20:00,
2013-03-28 13:25:00,69.0,46.8,29.91,WNW,292,0.0,0.0,45,0.00,,---,0.00,VWS V13.01,2013-03-28 17:25:00,
2013-03-28 13:30:00,68.9,46.7,29.91,WNW,292,0.0,0.0,45,0.00,,---,0.00,VWS V13.01,2013-03-28 17:30:00,
2013-03-28 13:35:00,68.7,46.5,29.91,WNW,292,0.0,0.0,45,0.00,,---,0.00,VWS V13.01,2013-03-28 17:35:00,
2013-03-28 13:40:00,68.7,46.5,29.91,WNW,292,0.0,0.0,45,0.00,,---,0.00,VWS V13.01,2013-03-28 17:40:00,
2013-03-28 13:45:00,68.9,46.7,29.90,WNW,292,0.0,0.0,45,0.00,,---,0.00,VWS V13.01,2013-03-28 17:45:00,
2013-03-28 13:50:00,69.0,46.2,29.90,WNW,292,0.0,0.0,44,0.00,,---,0.00,VWS V13.01,2013-03-28 17:50:00,
2013-03-28 13:55:00,68.9,46.1,29.90,WNW,292,0.0,0.0,44,0.00,,---,0.00,VWS V13.01,2013-03-28 17:55:00,
2013-03-28 14:00:00,68.9,46.1,29.90,WNW,292,0.0,0.0,44,0.00,,---,0.00,VWS V13.01,2013-03-28 18:00:00,
2013-03-28 14:05:00,69.0,46.8,29.90,WNW,292,0.0,0.0,45,0.00,,---,0.00,VWS V13.01,2013-03-28 18:05:00,
2013-03-28 14:10:00,69.6,46.8,29.89,WNW,292,0.0,0.0,44,0.00,,---,0.00,VWS V13.01,2013-03-28 18:10:00,
2013-03-28 14:15:00,69.6,46.1,29.89,WNW,292,0.0,0.0,43,0.00,,---,0.00,VWS V13.01,2013-03-28 18:15:00,
2013-03-28 14:20:00,69.8,46.9,29.89,WNW,292,0.0,0.0,44,0.00,,---,0.00,VWS V13.01,2013-03-28 18:20:00,
2013-03-28 14:25:00,69.9,46.4,29.89,WNW,292,0.0,0.0,43,0.00,,---,0.00,VWS V13.01,2013-03-28 18:25:00,
2013-03-28 14:30:00,69.6,45.5,29.89,WNW,292,0.0,0.0,42,0.00,,---,0.00,VWS V13.01,2013-03-28 18:30:00,
2013-03-28 14:35:00,69.8,46.3,29.88,WNW,292,0.0,0.0,43,0.00,,---,0.00,VWS V13.01,2013-03-28 18:35:00,
2013-03-28 14:40:00,69.6,45.5,29.88,WNW,292,0.0,0.0,42,0.00,,---,0.00,VWS V13.01,2013-03-28 18:40:00,
2013-03-28 14:45:00,69.6,44.9,29.88,WNW,292,0.0,0.0,41,0.00,,---,0.00,VWS V13.01,2013-03-28 18:45:00,
2013-03-28 14:50:00,69.9,45.8,29.87,NW,315,0.0,0.0,42,0.00,,---,0.00,VWS V13.01,2013-03-28 18:50:00,
2013-03-28 14:55:00,69.9,45.2,29.87,WNW,292,0.0,0.0,41,0.00,,---,0.00,VWS V13.01,2013-03-28 18:55:00,
2013-03-28 15:00:00,70.1,45.3,29.87,WNW,292,0.0,0.0,41,0.00,,---,0.00,VWS V13.01,2013-03-28 19:00:00,
2013-03-28 15:05:00,69.9,44.5,29.87,WNW,292,0.0,0.0,40,0.00,,---,0.00,VWS V13.01,2013-03-28 19:05:00,
2013-03-28 15:10:00,69.6,44.9,29.87,NW,315,0.0,0.0,41,0.00,,---,0.00,VWS V13.01,2013-03-28 19:10:00,
2013-03-28 15:15:00,69.6,44.9,29.87,WNW,292,0.0,0.0,41,0.00,,---,0.00,VWS V13.01,2013-03-28 19:15:00,
2013-03-28 15:20:00,69.4,44.1,29.87,WNW,292,0.0,0.0,40,0.00,,---,0.00,VWS V13.01,2013-03-28 19:20:00,
2013-03-28 15:25:00,69.0,44.3,29.87,WNW,292,0.0,0.0,41,0.00,,---,0.00,VWS V13.01,2013-03-28 19:25:00,
2013-03-28 15:30:00,69.0,44.3,29.87,WNW,292,0.0,0.0,41,0.00,,---,0.00,VWS V13.01,2013-03-28 19:30:00,
2013-03-28 15:35:00,69.0,44.3,29.86,NW,315,0.0,0.0,41,0.00,,---,0.00,VWS V13.01,2013-03-28 19:35:00,
2013-03-28 15:40:00,69.0,45.0,29.86,NW,315,0.0,0.0,42,0.00,,---,0.00,VWS V13.01,2013-03-28 19:40:00,
2013-03-28 15:45:00,69.0,45.0,29.86,NW,315,0.0,0.0,42,0.00,,---,0.00,VWS V13.01,2013-03-28 19:45:00,
2013-03-28 15:50:00,68.9,43.6,29.86,WNW,292,0.0,0.0,40,0.00,,---,0.00,VWS V13.01,2013-03-28 19:50:00,
2013-03-28 15:55:00,68.7,43.4,29.86,WNW,292,0.0,0.0,40,0.00,,---,0.00,VWS V13.01,2013-03-28 19:55:00,
2013-03-28 16:00:00,68.5,43.2,29.86,WNW,292,0.0,0.0,40,0.00,,---,0.00,VWS V13.01,2013-03-28 20:00:00,
2013-03-28 16:05:00,68.5,43.9,29.86,WNW,292,0.0,0.0,41,0.00,,---,0.00,VWS V13.01,2013-03-28 20:05:00,
2013-03-28 16:10:00,68.3,44.3,29.86,WNW,292,0.0,0.0,42,0.00,,---,0.00,VWS V13.01,2013-03-28 20:10:00,
2013-03-28 16:15:00,68.3,45.0,29.85,WNW,292,0.0,0.0,43,0.00,,---,0.00,VWS V13.01,2013-03-28 20:15:00,
2013-03-28 16:20:00,68.1,44.8,29.85,WNW,292,0.0,0.0,43,0.00,,---,0.00,VWS V13.01,2013-03-28 20:20:00,
2013-03-28 16:25:00,68.3,45.0,29.85,WNW,292,0.0,0.0,43,0.00,,---,0.00,VWS V13.01,2013-03-28 20:25:00,
2013-03-28 16:30:00,68.3,45.0,29.85,WNW,292,0.0,0.0,43,0.00,,---,0.00,VWS V13.01,2013-03-28 20:30:00,
2013-03-28 16:35:00,68.1,44.8,29.85,WNW,292,0.0,0.0,43,0.00,,---,0.00,VWS V13.01,2013-03-28 20:35:00,
2013-03-28 16:40:00,68.0,44.7,29.85,WNW,292,0.0,0.0,43,0.00,,---,0.00,VWS V13.01,2013-03-28 20:40:00,
2013-03-28 16:45:00,67.8,45.1,29.85,WNW,292,0.0,0.0,44,0.00,,---,0.00,VWS V13.01,2013-03-28 20:45:00,
2013-03-28 16:50:00,67.8,45.1,29.85,WNW,292,0.0,0.0,44,0.00,,---,0.00,VWS V13.01,2013-03-28 20:50:00,
2013-03-28 16:55:00,67.6,44.9,29.85,WNW,292,0.0,0.0,44,0.00,,---,0.00,VWS V13.01,2013-03-28 20:55:00,
2013-03-28 17:01:00,67.2,44.0,29.85,WNW,292,0.0,0.0,43,0.00,,---,0.00,VWS V13.01,2013-03-28 21:01:00,
2013-03-28 17:06:00,67.1,44.5,29.85,WNW,292,0.0,0.0,44,0.00,,---,0.00,VWS V13.01,2013-03-28 21:06:00,
2013-03-28 17:11:00,67.1,44.5,29.85,WNW,292,0.0,0.0,44,0.00,,---,0.00,VWS V13.01,2013-03-28 21:11:00,
2013-03-28 17:16:00,67.1,43.9,29.85,WNW,292,0.0,0.0,43,0.00,,---,0.00,VWS V13.01,2013-03-28 21:16:00,
2013-03-28 17:21:00,66.7,44.7,29.85,NW,315,0.0,0.0,45,0.00,,---,0.00,VWS V13.01,2013-03-28 21:21:00,
2013-03-28 17:27:00,66.7,44.7,29.85,WNW,292,0.0,0.0,45,0.00,,---,0.00,VWS V13.01,2013-03-28 21:27:00,
2013-03-28 17:32:00,66.7,44.7,29.85,WNW,292,0.0,0.0,45,0.00,,---,0.00,VWS V13.01,2013-03-28 21:32:00,
2013-03-28 17:37:00,66.7,45.3,29.85,WNW,292,0.0,0.0,46,0.00,,---,0.00,VWS V13.01,2013-03-28 21:37:00,
2013-03-28 17:42:00,66.5,45.1,29.85,WNW,292,0.0,0.0,46,0.00,,---,0.00,VWS V13.01,2013-03-28 21:42:00,
2013-03-28 17:47:00,66.5,45.1,29.86,WNW,292,0.0,0.0,46,0.00,,---,0.00,VWS V13.01,2013-03-28 21:47:00,
2013-03-28 17:52:00,66.3,45.5,29.86,WNW,292,0.0,0.0,47,0.00,,---,0.00,VWS V13.01,2013-03-28 21:52:00,
2013-03-28 17:58:00,66.3,46.0,29.86,WNW,292,0.0,0.0,48,0.00,,---,0.00,VWS V13.01,2013-03-28 21:58:00,
2013-03-28 18:03:00,66.3,46.0,29.86,WNW,292,0.0,0.0,48,0.00,,---,0.00,VWS V13.01,2013-03-28 22:03:00,
2013-03-28 18:08:00,66.0,45.8,29.86,WNW,292,0.0,0.0,48,0.00,,---,0.00,VWS V13.01,2013-03-28 22:08:00,
2013-03-28 18:13:00,66.0,45.8,29.86,WNW,292,0.0,0.0,48,0.00,,---,0.00,VWS V13.01,2013-03-28 22:13:00,
2013-03-28 18:18:00,65.8,46.1,29.86,WNW,292,0.0,0.0,49,0.00,,---,0.00,VWS V13.01,2013-03-28 22:18:00,
2013-03-28 18:23:00,65.3,45.7,29.86,WNW,292,0.0,0.0,49,0.00,,---,0.00,VWS V13.01,2013-03-28 22:23:00,
2013-03-28 18:28:00,65.1,45.5,29.87,WNW,292,0.0,0.0,49,0.00,,---,0.00,VWS V13.01,2013-03-28 22:28:00,
2013-03-28 18:33:00,65.1,46.0,29.86,WNW,292,0.0,0.0,50,0.00,,---,0.00,VWS V13.01,2013-03-28 22:33:00,
2013-03-28 18:38:00,64.7,45.7,29.87,WNW,292,0.0,0.0,50,0.00,,---,0.00,VWS V13.01,2013-03-28 22:38:00,
2013-03-28 18:43:00,64.5,45.5,29.87,WNW,292,0.0,0.0,50,0.00,,---,0.00,VWS V13.01,2013-03-28 22:43:00,
2013-03-28 18:48:00,64.5,46.0,29.87,WNW,292,0.0,0.0,51,0.00,,---,0.00,VWS V13.01,2013-03-28 22:48:00,
2013-03-28 18:53:00,64.2,45.7,29.87,WNW,292,0.0,0.0,51,0.00,,---,0.00,VWS V13.01,2013-03-28 22:53:00,
2013-03-28 18:58:00,64.2,45.7,29.87,WNW,292,0.0,0.0,51,0.00,,---,0.00,VWS V13.01,2013-03-28 22:58:00,
2013-03-28 19:03:00,64.0,45.0,29.87,WNW,292,0.0,0.0,50,0.00,,---,0.00,VWS V13.01,2013-03-28 23:03:00,
2013-03-28 19:08:00,64.0,45.5,29.88,WNW,292,0.0,0.0,51,0.00,,---,0.00,VWS V13.01,2013-03-28 23:08:00,
2013-03-28 19:13:00,64.0,45.0,29.88,WNW,292,0.0,0.0,50,0.00,,---,0.00,VWS V13.01,2013-03-28 23:13:00,
2013-03-28 19:18:00,63.6,45.2,29.88,WNW,292,0.0,0.0,51,0.00,,---,0.00,VWS V13.01,2013-03-28 23:18:00,
2013-03-28 19:23:00,63.5,45.1,29.88,WNW,292,0.0,0.0,51,0.00,,---,0.00,VWS V13.01,2013-03-28 23:23:00,
2013-03-28 19:28:00,63.5,45.1,29.89,WNW,292,0.0,0.0,51,0.00,,---,0.00,VWS V13.01,2013-03-28 23:28:00,
2013-03-28 19:33:00,63.5,45.1,29.89,WNW,292,0.0,0.0,51,0.00,,---,0.00,VWS V13.01,2013-03-28 23:33:00,
2013-03-28 19:38:00,63.3,44.9,29.89,WNW,292,0.0,0.0,51,0.00,,---,0.00,VWS V13.01,2013-03-28 23:38:00,
2013-03-28 19:43:00,63.1,44.7,29.89,WNW,292,0.0,0.0,51,0.00,,---,0.00,VWS V13.01,2013-03-28 23:43:00,
2013-03-28 19:48:00,63.1,45.2,29.89,WNW,292,0.0,0.0,52,0.00,,---,0.00,VWS V13.01,2013-03-28 23:48:00,
2013-03-28 19:53:00,62.7,44.8,29.89,WNW,292,0.0,0.0,52,0.00,,---,0.00,VWS V13.01,2013-03-28 23:53:00,
2013-03-28 19:58:00,62.6,44.8,29.89,WNW,292,0.0,0.0,52,0.00,,---,0.00,VWS V13.01,2013-03-28 23:58:00,
2013-03-28 20:03:00,62.4,44.6,29.89,WNW,292,0.0,0.0,52,0.00,,---,0.00,VWS V13.01,2013-03-29 00:03:00,
2013-03-28 20:08:00,62.0,44.2,29.89,WNW,292,0.0,0.0,52,0.00,,---,0.00,VWS V13.01,2013-03-29 00:08:00,
2013-03-28 20:13:00,61.7,44.4,29.89,WNW,292,0.0,0.0,53,0.00,,---,0.00,VWS V13.01,2013-03-29 00:13:00,
2013-03-28 20:18:00,61.5,44.2,29.89,WNW,292,0.0,0.0,53,0.00,,---,0.00,VWS V13.01,2013-03-29 00:18:00,
2013-03-28 20:23:00,61.3,44.0,29.90,WNW,292,0.0,0.0,53,0.00,,---,0.00,VWS V13.01,2013-03-29 00:23:00,
2013-03-28 20:28:00,61.3,44.5,29.89,WNW,292,0.0,0.0,54,0.00,,---,0.00,VWS V13.01,2013-03-29 00:28:00,
2013-03-28 20:33:00,61.1,44.3,29.89,WNW,292,0.0,0.0,54,0.00,,---,0.00,VWS V13.01,2013-03-29 00:33:00,
2013-03-28 20:38:00,60.9,44.2,29.89,WNW,292,0.0,0.0,54,0.00,,---,0.00,VWS V13.01,2013-03-29 00:38:00,
2013-03-28 20:43:00,60.6,43.9,29.89,WNW,292,0.0,0.0,54,0.00,,---,0.00,VWS V13.01,2013-03-29 00:43:00,
2013-03-28 20:48:00,60.6,44.4,29.90,WNW,292,0.0,0.0,55,0.00,,---,0.00,VWS V13.01,2013-03-29 00:48:00,
2013-03-28 20:53:00,60.4,44.2,29.90,WNW,292,0.0,0.0,55,0.00,,---,0.00,VWS V13.01,2013-03-29 00:53:00,
2013-03-28 20:58:00,60.4,44.2,29.90,WNW,292,0.0,0.0,55,0.00,,---,0.00,VWS V13.01,2013-03-29 00:58:00,
2013-03-28 21:03:00,60.4,44.2,29.90,WNW,292,0.0,0.0,55,0.00,,---,0.00,VWS V13.01,2013-03-29 01:03:00,
2013-03-28 21:08:00,60.0,44.3,29.90,WNW,292,0.0,0.0,56,0.00,,---,0.00,VWS V13.01,2013-03-29 01:08:00,
2013-03-28 21:13:00,60.0,44.3,29.90,WNW,292,0.0,0.0,56,0.00,,---,0.00,VWS V13.01,2013-03-29 01:13:00,
2013-03-28 21:18:00,59.9,44.2,29.90,WNW,292,0.0,0.0,56,0.00,,---,0.00,VWS V13.01,2013-03-29 01:18:00,
2013-03-28 21:23:00,59.7,44.0,29.90,WNW,292,0.0,0.0,56,0.00,,---,0.00,VWS V13.01,2013-03-29 01:23:00,
2013-03-28 21:28:00,59.7,44.0,29.90,WNW,292,0.0,0.0,56,0.00,,---,0.00,VWS V13.01,2013-03-29 01:28:00,
2013-03-28 21:33:00,59.5,43.8,29.90,WNW,292,0.0,0.0,56,0.00,,---,0.00,VWS V13.01,2013-03-29 01:33:00,
2013-03-28 21:38:00,59.5,44.3,29.91,WNW,292,0.0,0.0,57,0.00,,---,0.00,VWS V13.01,2013-03-29 01:38:00,
2013-03-28 21:43:00,59.3,44.1,29.91,WNW,292,0.0,0.0,57,0.00,,---,0.00,VWS V13.01,2013-03-29 01:43:00,
2013-03-28 21:48:00,59.1,43.9,29.91,WNW,292,0.0,0.0,57,0.00,,---,0.00,VWS V13.01,2013-03-29 01:48:00,
2013-03-28 21:53:00,58.8,43.6,29.91,WNW,292,0.0,0.0,57,0.00,,---,0.00,VWS V13.01,2013-03-29 01:53:00,
2013-03-28 21:58:00,58.8,43.6,29.91,WNW,292,0.0,0.0,57,0.00,,---,0.00,VWS V13.01,2013-03-29 01:58:00,
2013-03-28 22:03:00,58.8,44.1,29.91,WNW,292,0.0,0.0,58,0.00,,---,0.00,VWS V13.01,2013-03-29 02:03:00,
2013-03-28 22:08:00,58.8,44.1,29.91,WNW,292,0.0,0.0,58,0.00,,---,0.00,VWS V13.01,2013-03-29 02:08:00,
2013-03-28 22:13:00,58.8,44.1,29.91,WNW,292,0.0,0.0,58,0.00,,---,0.00,VWS V13.01,2013-03-29 02:13:00,
2013-03-28 22:18:00,58.8,44.5,29.91,WNW,292,0.0,0.0,59,0.00,,---,0.00,VWS V13.01,2013-03-29 02:18:00,
2013-03-28 22:23:00,58.6,44.8,29.91,WNW,292,0.0,0.0,60,0.00,,---,0.00,VWS V13.01,2013-03-29 02:23:00,
2013-03-28 22:28:00,58.4,44.6,29.92,WNW,292,0.0,0.0,60,0.00,,---,0.00,VWS V13.01,2013-03-29 02:28:00,
2013-03-28 22:33:00,58.2,44.4,29.91,WNW,292,0.0,0.0,60,0.00,,---,0.00,VWS V13.01,2013-03-29 02:33:00,
2013-03-28 22:38:00,57.9,44.5,29.91,WNW,292,0.0,0.0,61,0.00,,---,0.00,VWS V13.01,2013-03-29 02:38:00,
2013-03-28 22:43:00,57.9,44.5,29.91,WNW,292,0.0,0.0,61,0.00,,---,0.00,VWS V13.01,2013-03-29 02:43:00,
2013-03-28 22:48:00,57.7,44.8,29.91,WNW,292,0.0,0.0,62,0.00,,---,0.00,VWS V13.01,2013-03-29 02:48:00,
2013-03-28 22:53:00,57.3,44.4,29.91,WNW,292,0.0,0.0,62,0.00,,---,0.00,VWS V13.01,2013-03-29 02:53:00,
2013-03-28 22:58:00,57.3,44.8,29.91,WNW,292,0.0,0.0,63,0.00,,---,0.00,VWS V13.01,2013-03-29 02:58:00,
2013-03-28 23:03:00,57.2,44.7,29.91,WNW,292,0.0,0.0,63,0.00,,---,0.00,VWS V13.01,2013-03-29 03:03:00,
2013-03-28 23:08:00,57.0,44.5,29.92,WNW,292,0.0,0.0,63,0.00,,---,0.00,VWS V13.01,2013-03-29 03:08:00,
2013-03-28 23:13:00,56.8,44.3,29.92,WNW,292,0.0,0.0,63,0.00,,---,0.00,VWS V13.01,2013-03-29 03:13:00,
2013-03-28 23:18:00,56.8,44.3,29.92,WNW,292,0.0,0.0,63,0.00,,---,0.00,VWS V13.01,2013-03-29 03:18:00,
2013-03-28 23:23:00,56.4,44.0,29.92,WNW,292,0.0,0.0,63,0.00,,---,0.00,VWS V13.01,2013-03-29 03:23:00,
2013-03-28 23:28:00,56.4,44.4,29.92,WNW,292,0.0,0.0,64,0.00,,---,0.00,VWS V13.01,2013-03-29 03:28:00,
2013-03-28 23:33:00,56.3,44.3,29.92,WNW,292,0.0,0.0,64,0.00,,---,0.00,VWS V13.01,2013-03-29 03:33:00,
2013-03-28 23:38:00,56.1,44.1,29.92,WNW,292,0.0,0.0,64,0.00,,---,0.00,VWS V13.01,2013-03-29 03:38:00,
2013-03-28 23:43:00,55.9,43.9,29.92,WNW,292,0.0,0.0,64,0.00,,---,0.00,VWS V13.01,2013-03-29 03:43:00,
2013-03-28 23:48:00,55.9,44.3,29.91,WNW,292,0.0,0.0,65,0.00,,---,0.00,VWS V13.01,2013-03-29 03:48:00,
2013-03-28 23:53:00,55.5,43.9,29.91,WNW,292,0.0,0.0,65,0.00,,---,0.00,VWS V13.01,2013-03-29 03:53:00,
2013-03-28 23:58:00,55.5,43.9,29.91,WNW,292,0.0,0.0,65,0.00,,---,0.00,VWS V13.01,2013-03-29 03:58:00,